createdAt,value
2022-08-01T00:04:27.061Z,43.04
2022-08-01T00:09:30.714Z,43.66
2022-08-01T00:14:36.645Z,43.96
2022-08-01T00:19:40.263Z,44.07
2022-08-01T00:24:43.933Z,44.83
2022-08-01T00:30:11.180Z,45.35
2022-08-01T00:35:13.115Z,45.74
2022-08-01T00:40:16.734Z,45.45
2022-08-01T00:45:22.013Z,46.01
2022-08-01T00:50:26.153Z,45.54
2022-08-01T00:55:30.960Z,45.94
2022-08-01T01:00:53.061Z,45.26
2022-08-01T01:06:10.140Z,44.74
2022-08-01T01:11:23.459Z,43.06
2022-08-01T01:16:32.509Z,44.36
2022-08-01T01:21:58.270Z,44.39
2022-08-01T01:27:12.366Z,43.64
2022-08-01T01:32:21.605Z,43.91
2022-08-01T01:37:36.302Z,44.12
2022-08-01T01:42:41.526Z,43.99
2022-08-01T01:47:48.367Z,44.08
2022-08-01T01:52:52.875Z,44.38
2022-08-01T01:57:58.478Z,44.03
2022-08-01T02:03:06.089Z,43.84
2022-08-01T02:08:11.290Z,44.15
2022-08-01T02:13:16.121Z,43.00
2022-08-01T02:18:23.947Z,43.07
2022-08-01T02:23:33.258Z,42.16
2022-08-01T02:28:45.167Z,41.94
2022-08-01T02:33:57.843Z,41.61
2022-08-01T02:39:05.531Z,42.76
2022-08-01T02:44:11.331Z,42.79
2022-08-01T02:49:18.344Z,43.67
2022-08-01T02:54:24.999Z,43.75
2022-08-01T02:59:31.327Z,44.44
2022-08-01T03:04:39.759Z,44.00
2022-08-01T03:09:46.932Z,44.39
2022-08-01T03:14:53.478Z,45.48
2022-08-01T03:20:00.826Z,45.88
2022-08-01T03:25:06.158Z,46.62
2022-08-01T03:30:10.819Z,48.24
2022-08-01T03:35:16.115Z,49.44
2022-08-01T03:40:25.306Z,50.94
2022-08-01T03:45:33.530Z,50.90
2022-08-01T03:50:41.280Z,51.55
2022-08-01T03:55:45.837Z,52.21
2022-08-01T04:00:50.378Z,52.28
2022-08-01T04:05:56.857Z,52.95
2022-08-01T04:11:00.557Z,53.70
2022-08-01T04:16:04.229Z,53.99
2022-08-01T04:21:10.016Z,55.08
2022-08-01T04:26:16.758Z,54.98
2022-08-01T04:31:20.769Z,55.38
2022-08-01T04:36:27.558Z,56.07
2022-08-01T04:41:33.349Z,56.31
2022-08-01T04:46:38.924Z,56.00
2022-08-01T04:51:54.346Z,56.43
2022-08-01T04:56:57.507Z,56.84
2022-08-01T05:02:01.126Z,55.87
2022-08-01T05:07:06.400Z,56.44
2022-08-01T05:12:09.965Z,57.15
2022-08-01T05:17:13.541Z,56.71
2022-08-01T05:22:20.959Z,57.12
2022-08-01T05:27:23.790Z,58.19
2022-08-01T05:32:30.513Z,57.97
2022-08-01T05:37:35.801Z,58.52
2022-08-01T05:42:38.622Z,58.57
2022-08-01T05:47:43.016Z,57.87
2022-08-01T05:52:48.443Z,58.96
2022-08-01T05:57:52.166Z,58.54
2022-08-01T06:02:55.733Z,59.00
2022-08-01T06:08:00.984Z,59.30
2022-08-01T06:13:04.629Z,59.05
2022-08-01T06:18:08.360Z,58.99
2022-08-01T06:23:31.606Z,59.75
2022-08-01T06:28:36.613Z,59.50
2022-08-01T06:33:40.282Z,59.90
2022-08-01T06:38:45.518Z,60.13
2022-08-01T06:43:49.109Z,59.55
2022-08-01T06:48:52.738Z,60.04
2022-08-01T06:53:58.033Z,60.47
2022-08-01T06:59:01.617Z,60.51
2022-08-01T07:04:05.546Z,60.81
2022-08-01T07:09:14.115Z,61.74
2022-08-01T07:14:18.478Z,61.40
2022-08-01T07:19:22.071Z,61.57
2022-08-01T07:24:28.830Z,62.04
2022-08-01T07:29:32.461Z,61.93
2022-08-01T07:34:36.122Z,62.08
2022-08-01T07:39:41.401Z,62.44
2022-08-01T07:44:44.985Z,62.24
2022-08-01T07:49:48.617Z,62.80
2022-08-01T07:54:53.840Z,63.23
2022-08-01T07:59:57.828Z,63.16
2022-08-01T08:05:01.392Z,63.73
2022-08-01T08:10:07.759Z,63.79
2022-08-01T08:15:12.093Z,63.05
2022-08-01T08:20:15.711Z,63.78
2022-08-01T08:25:22.084Z,64.29
2022-08-01T08:30:30.245Z,64.08
2022-08-01T08:35:40.476Z,64.82
2022-08-01T08:40:59.980Z,64.91
2022-08-01T08:46:04.060Z,65.34
2022-08-01T08:51:09.246Z,65.77
2022-08-01T08:56:15.757Z,65.35
2022-08-01T09:01:19.756Z,65.22
2022-08-01T09:06:27.648Z,65.36
2022-08-01T09:11:33.138Z,65.36
2022-08-01T09:16:43.239Z,66.08
2022-08-01T09:21:59.495Z,67.97
2022-08-01T09:27:18.241Z,67.65
2022-08-01T09:32:26.017Z,66.40
2022-08-01T09:37:37.507Z,67.14
2022-08-01T09:42:42.933Z,66.89
2022-08-01T09:47:46.585Z,66.38
2022-08-01T09:52:56.127Z,66.90
2022-08-01T09:58:02.647Z,66.19
2022-08-01T10:03:22.916Z,65.69
2022-08-01T10:08:28.397Z,65.40
2022-08-01T10:13:36.526Z,66.09
2022-08-01T10:18:43.487Z,66.71
2022-08-01T10:23:47.910Z,66.09
2022-08-01T10:28:56.449Z,66.86
2022-08-01T10:34:00.766Z,66.60
2022-08-01T10:39:04.462Z,67.35
2022-08-01T10:44:10.975Z,68.41
2022-08-01T10:49:17.290Z,67.90
2022-08-01T10:54:20.923Z,67.42
2022-08-01T10:59:49.929Z,67.98
2022-08-01T11:04:59.937Z,68.38
2022-08-01T11:10:15.159Z,68.29
2022-08-01T11:15:29.139Z,68.17
2022-08-01T11:20:41.576Z,68.39
2022-08-01T11:26:11.067Z,69.26
2022-08-01T11:31:37.417Z,68.40
2022-08-01T11:36:59.054Z,67.91
2022-08-01T11:42:21.066Z,69.03
2022-08-01T11:47:47.316Z,68.68
2022-08-01T11:53:00.045Z,68.55
2022-08-01T11:58:04.898Z,68.62
2022-08-01T12:03:13.136Z,69.30
2022-08-01T12:08:27.698Z,69.08
2022-08-01T12:13:41.933Z,69.38
2022-08-01T12:18:47.183Z,70.15
2022-08-01T12:24:02.821Z,69.97
2022-08-01T12:29:06.404Z,68.15
2022-08-01T12:34:30.232Z,67.00
2022-08-01T12:39:35.100Z,66.57
2022-08-01T12:44:39.403Z,67.08
2022-08-01T12:49:45.618Z,68.06
2022-08-01T12:55:13.082Z,68.79
2022-08-01T13:00:20.231Z,68.77
2022-08-01T13:05:26.882Z,68.76
2022-08-01T13:10:32.314Z,68.07
2022-08-01T13:15:41.879Z,68.04
2022-08-01T13:20:50.520Z,68.77
2022-08-01T13:25:57.685Z,68.32
2022-08-01T13:31:02.753Z,67.94
2022-08-01T13:36:08.479Z,67.71
2022-08-01T13:41:12.084Z,67.55
2022-08-01T13:46:15.746Z,67.83
2022-08-01T13:51:23.998Z,68.24
2022-08-01T13:56:27.775Z,67.51
2022-08-01T14:01:34.417Z,67.20
2022-08-01T14:06:40.080Z,67.44
2022-08-01T14:11:46.165Z,67.19
2022-08-01T14:16:49.800Z,67.04
2022-08-01T14:21:56.134Z,67.23
2022-08-01T14:26:59.732Z,67.00
2022-08-01T14:32:03.436Z,66.72
2022-08-01T14:37:08.878Z,67.17
2022-08-01T14:42:12.470Z,67.32
2022-08-01T14:47:21.811Z,67.85
2022-08-01T14:52:27.663Z,67.36
2022-08-01T14:57:32.350Z,67.22
2022-08-01T15:02:35.931Z,67.34
2022-08-01T15:07:51.568Z,68.83
2022-08-01T15:12:57.311Z,68.88
2022-08-01T15:18:00.914Z,69.43
2022-08-01T15:23:06.151Z,68.97
2022-08-01T15:28:10.510Z,69.19
2022-08-01T15:33:14.183Z,69.35
2022-08-01T15:38:19.429Z,69.49
2022-08-01T15:43:23.027Z,68.57
2022-08-01T15:48:26.756Z,68.19
2022-08-01T15:53:31.997Z,68.08
2022-08-01T15:58:35.576Z,67.52
2022-08-01T16:03:39.865Z,67.01
2022-08-01T16:08:44.947Z,67.55
2022-08-01T16:13:48.524Z,67.74
2022-08-01T16:18:54.363Z,68.24
2022-08-01T16:24:00.304Z,68.14
2022-08-01T16:29:04.046Z,68.73
2022-08-01T16:34:07.640Z,69.10
2022-08-01T16:39:17.317Z,70.58
2022-08-01T16:44:28.588Z,70.05
2022-08-01T16:49:38.195Z,70.03
2022-08-01T16:54:43.470Z,69.40
2022-08-01T16:59:47.070Z,69.06
2022-08-01T17:04:50.650Z,72.43
2022-08-01T17:09:55.934Z,73.78
2022-08-01T17:14:59.644Z,74.19
2022-08-01T17:20:03.254Z,74.03
2022-08-01T17:25:16.051Z,77.15
2022-08-01T17:30:19.866Z,78.07
2022-08-01T17:35:23.713Z,78.13
2022-08-01T17:40:40.056Z,76.55
2022-08-01T17:45:50.426Z,76.12
2022-08-01T17:50:55.768Z,77.14
2022-08-01T17:56:01.027Z,77.58
2022-08-01T18:01:04.829Z,76.54
2022-08-01T18:06:09.253Z,77.77
2022-08-01T18:11:16.060Z,78.54
2022-08-01T18:16:19.788Z,77.35
2022-08-01T18:21:23.388Z,77.45
2022-08-01T18:26:28.910Z,79.75
2022-08-01T18:31:31.751Z,79.86
2022-08-01T18:36:35.373Z,76.82
2022-08-01T18:41:46.317Z,76.69
2022-08-01T18:46:49.988Z,77.93
2022-08-01T18:51:53.654Z,76.77
2022-08-01T18:56:58.878Z,77.13
2022-08-01T19:02:02.475Z,76.99
2022-08-01T19:07:06.346Z,76.40
2022-08-01T19:12:12.027Z,77.79
2022-08-01T19:17:14.879Z,76.92
2022-08-01T19:22:18.463Z,75.67
2022-08-01T19:27:26.845Z,76.69
2022-08-01T19:32:34.366Z,75.42
2022-08-01T19:37:38.092Z,74.23
2022-08-01T19:42:44.172Z,74.44
2022-08-01T19:47:51.994Z,73.32
2022-08-01T19:53:04.038Z,73.74
2022-08-01T19:58:26.477Z,71.63
2022-08-01T20:03:31.516Z,71.95
2022-08-01T20:08:36.013Z,70.94
2022-08-01T20:13:41.828Z,69.94
2022-08-01T20:18:45.503Z,70.09
2022-08-01T20:23:51.858Z,68.68
2022-08-01T20:28:58.150Z,67.27
2022-08-01T20:34:02.214Z,67.59
2022-08-01T20:39:05.863Z,66.96
2022-08-01T20:44:15.103Z,67.60
2022-08-01T20:49:21.769Z,67.61
2022-08-01T20:54:25.985Z,67.18
2022-08-01T20:59:55.400Z,65.83
2022-08-01T21:05:05.737Z,62.27
2022-08-01T21:10:10.635Z,61.26
2022-08-01T21:15:22.252Z,57.59
2022-08-01T21:20:31.687Z,57.19
2022-08-01T21:25:36.380Z,56.24
2022-08-01T21:30:42.731Z,54.68
2022-08-01T21:36:05.799Z,53.54
2022-08-01T21:41:10.105Z,54.54
2022-08-01T21:46:18.208Z,54.44
2022-08-01T21:51:38.296Z,53.47
2022-08-01T21:56:49.759Z,54.54
2022-08-01T22:02:02.926Z,56.43
2022-08-01T22:07:09.453Z,55.78
2022-08-01T22:12:17.863Z,55.85
2022-08-01T22:17:25.192Z,56.21
2022-08-01T22:22:51.706Z,56.08
2022-08-01T22:28:09.386Z,56.29
2022-08-01T22:33:17.469Z,56.47
2022-08-01T22:38:22.895Z,56.69
2022-08-01T22:43:31.324Z,56.29
2022-08-01T22:48:45.055Z,56.05
2022-08-01T22:53:54.143Z,55.85
2022-08-01T22:59:02.510Z,54.05
2022-08-01T23:04:12.802Z,52.41
2022-08-01T23:09:18.432Z,51.86
2022-08-01T23:14:23.586Z,50.85
2022-08-01T23:19:31.576Z,49.58
2022-08-01T23:24:36.474Z,50.38
2022-08-01T23:29:40.326Z,50.51
2022-08-01T23:34:46.072Z,51.07
2022-08-01T23:39:50.113Z,51.73
2022-08-01T23:44:53.713Z,51.57
2022-08-01T23:49:59.346Z,52.27
2022-08-01T23:55:03.393Z,52.29
